createdAt,value
2022-12-11T00:00:26.022Z,-1.87
2022-12-11T00:02:52.523Z,-1.85
2022-12-11T00:05:19.014Z,-1.85
2022-12-11T00:07:45.525Z,-1.82
2022-12-11T00:10:11.950Z,-1.82
2022-12-11T00:12:38.363Z,-1.83
2022-12-11T00:15:05.004Z,-1.77
2022-12-11T00:17:31.425Z,-1.81
2022-12-11T00:19:57.821Z,-1.78
2022-12-11T00:22:24.182Z,-1.73
2022-12-11T00:24:51.473Z,-1.66
2022-12-11T00:27:18.174Z,-1.63
2022-12-11T00:29:44.590Z,-1.67
2022-12-11T00:32:11.128Z,-1.62
2022-12-11T00:34:37.639Z,-1.57
2022-12-11T00:37:04.129Z,-1.45
2022-12-11T00:39:30.548Z,-1.43
2022-12-11T00:41:58.262Z,-1.45
2022-12-11T00:44:25.002Z,-1.41
2022-12-11T00:46:51.394Z,-1.48
2022-12-11T00:49:17.810Z,-1.43
2022-12-11T00:51:44.223Z,-1.38
2022-12-11T00:54:10.591Z,-1.44
2022-12-11T00:56:37.042Z,-1.46
2022-12-11T00:59:03.483Z,-1.51
2022-12-11T01:01:29.977Z,-1.44
2022-12-11T01:03:56.568Z,-1.39
2022-12-11T01:06:25.283Z,-1.42
2022-12-11T01:09:12.420Z,-1.39
2022-12-11T01:11:39.443Z,-1.38
2022-12-11T01:14:06.478Z,-1.35
2022-12-11T01:16:32.992Z,-1.35
2022-12-11T01:18:59.734Z,-1.36
2022-12-11T01:21:26.364Z,-1.31
2022-12-11T01:23:54.103Z,-1.32
2022-12-11T01:26:21.427Z,-1.22
2022-12-11T01:28:51.729Z,-1.13
2022-12-11T01:31:19.466Z,-1.20
2022-12-11T01:33:45.921Z,-1.13
2022-12-11T01:36:15.353Z,-1.09
2022-12-11T01:38:41.806Z,-1.16
2022-12-11T01:41:09.018Z,-1.13
2022-12-11T01:43:35.873Z,-1.06
2022-12-11T01:46:02.383Z,-1.10
2022-12-11T01:48:30.205Z,-1.03
2022-12-11T01:51:00.349Z,-1.09
2022-12-11T01:53:31.607Z,-1.03
2022-12-11T01:55:58.732Z,-1.03
2022-12-11T01:58:29.729Z,-1.07
2022-12-11T02:00:56.715Z,-0.99
2022-12-11T02:03:23.224Z,-0.99
2022-12-11T02:05:50.056Z,-0.99
2022-12-11T02:08:16.734Z,-0.93
2022-12-11T02:10:56.419Z,-1.00
2022-12-11T02:13:38.881Z,-0.90
2022-12-11T02:16:13.847Z,-0.90
2022-12-11T02:18:47.664Z,-0.93
2022-12-11T02:21:21.138Z,-0.95
2022-12-11T02:24:07.434Z,-0.90
2022-12-11T02:26:50.847Z,-0.88
2022-12-11T02:29:23.343Z,-0.87
2022-12-11T02:32:03.973Z,-0.91
2022-12-11T02:34:55.125Z,-0.81
2022-12-11T02:37:23.672Z,-0.88
2022-12-11T02:39:52.237Z,-0.98
2022-12-11T02:42:19.907Z,-0.95
2022-12-11T02:44:47.339Z,-0.90
2022-12-11T02:47:15.216Z,-0.87
2022-12-11T02:49:44.365Z,-0.88
2022-12-11T02:52:13.084Z,-0.81
2022-12-11T02:54:40.130Z,-0.84
2022-12-11T02:57:12.286Z,-0.84
2022-12-11T02:59:40.743Z,-0.77
2022-12-11T03:02:07.343Z,-0.85
2022-12-11T03:04:36.197Z,-0.86
2022-12-11T03:07:13.759Z,-0.86
2022-12-11T03:09:41.307Z,-0.80
2022-12-11T03:12:08.919Z,-0.87
2022-12-11T03:14:36.607Z,-0.84
2022-12-11T03:17:14.418Z,-0.85
2022-12-11T03:20:06.021Z,-0.86
2022-12-11T03:23:02.249Z,-0.86
2022-12-11T03:25:35.425Z,-0.82
2022-12-11T03:28:16.506Z,-0.83
2022-12-11T03:30:44.010Z,-0.85
2022-12-11T03:33:20.558Z,-0.83
2022-12-11T03:35:54.143Z,-0.76
2022-12-11T03:38:34.334Z,-0.72
2022-12-11T03:41:02.248Z,-0.74
2022-12-11T03:43:29.378Z,-0.68
2022-12-11T03:45:56.709Z,-0.69
2022-12-11T03:48:23.584Z,-0.73
2022-12-11T03:50:50.398Z,-0.81
2022-12-11T03:53:17.546Z,-0.75
2022-12-11T03:55:45.034Z,-0.73
2022-12-11T03:58:11.660Z,-0.80
2022-12-11T04:00:38.466Z,-0.75
2022-12-11T04:03:14.584Z,-0.76
2022-12-11T04:05:52.179Z,-0.67
2022-12-11T04:08:20.914Z,-0.72
2022-12-11T04:10:47.402Z,-0.81
2022-12-11T04:13:13.964Z,-0.66
2022-12-11T04:15:40.872Z,-0.67
2022-12-11T04:18:26.882Z,-0.68
2022-12-11T04:21:12.890Z,-0.66
2022-12-11T04:23:58.000Z,-0.61
2022-12-11T04:26:24.402Z,-0.69
2022-12-11T04:28:51.028Z,-0.78
2022-12-11T04:31:20.141Z,-0.65
2022-12-11T04:33:47.404Z,-0.59
2022-12-11T04:36:14.437Z,-0.65
2022-12-11T04:38:41.096Z,-0.74
2022-12-11T04:41:13.432Z,-0.77
2022-12-11T04:43:39.970Z,-0.81
2022-12-11T04:46:09.377Z,-0.81
2022-12-11T04:48:36.530Z,-0.84
2022-12-11T04:51:03.328Z,-0.76
2022-12-11T04:53:29.782Z,-0.78
2022-12-11T04:55:56.259Z,-0.69
2022-12-11T04:58:23.374Z,-0.70
2022-12-11T05:00:50.149Z,-0.73
2022-12-11T05:03:16.744Z,-0.67
2022-12-11T05:05:52.996Z,-0.69
2022-12-11T05:08:20.719Z,-0.62
2022-12-11T05:10:58.274Z,-0.63
2022-12-11T05:13:24.835Z,-0.74
2022-12-11T05:15:51.289Z,-0.71
2022-12-11T05:18:18.171Z,-0.70
2022-12-11T05:20:44.875Z,-0.76
2022-12-11T05:23:11.541Z,-0.73
2022-12-11T05:25:38.001Z,-0.71
2022-12-11T05:28:04.383Z,-0.74
2022-12-11T05:30:30.787Z,-0.67
2022-12-11T05:32:57.215Z,-0.66
2022-12-11T05:35:23.585Z,-0.64
2022-12-11T05:37:49.959Z,-0.62
2022-12-11T05:40:16.420Z,-0.57
2022-12-11T05:42:42.789Z,-0.64
2022-12-11T05:45:10.004Z,-0.63
2022-12-11T05:47:36.634Z,-0.64
2022-12-11T05:50:03.267Z,-0.60
2022-12-11T05:52:31.697Z,-0.59
2022-12-11T05:54:58.231Z,-0.70
2022-12-11T05:57:24.615Z,-0.64
2022-12-11T05:59:50.994Z,-0.65
2022-12-11T06:02:17.511Z,-0.61
2022-12-11T06:04:43.968Z,-0.70
2022-12-11T06:07:10.343Z,-0.70
2022-12-11T06:09:36.752Z,-0.73
2022-12-11T06:12:03.137Z,-0.71
2022-12-11T06:14:29.504Z,-0.76
2022-12-11T06:16:55.953Z,-0.70
2022-12-11T06:19:22.435Z,-0.68
2022-12-11T06:21:48.903Z,-0.60
2022-12-11T06:24:15.373Z,-0.61
2022-12-11T06:26:41.787Z,-0.71
2022-12-11T06:29:12.513Z,-0.71
2022-12-11T06:31:39.676Z,-0.67
2022-12-11T06:34:06.171Z,-0.65
2022-12-11T06:36:32.590Z,-0.68
2022-12-11T06:38:59.089Z,-0.61
2022-12-11T06:41:25.808Z,-0.65
2022-12-11T06:43:52.347Z,-0.62
2022-12-11T06:46:19.932Z,-0.69
2022-12-11T06:48:47.332Z,-0.57
2022-12-11T06:51:19.909Z,-0.64
2022-12-11T06:53:53.876Z,-0.68
2022-12-11T06:56:21.145Z,-0.58
2022-12-11T06:58:47.615Z,-0.56
2022-12-11T07:01:24.894Z,-0.74
2022-12-11T07:03:59.267Z,-0.69
2022-12-11T07:06:27.194Z,-0.70
2022-12-11T07:08:54.384Z,-0.62
2022-12-11T07:11:21.737Z,-0.61
2022-12-11T07:13:48.340Z,-0.63
2022-12-11T07:16:16.568Z,-0.75
2022-12-11T07:18:47.672Z,-0.69
2022-12-11T07:21:14.809Z,-0.69
2022-12-11T07:23:41.498Z,-0.64
2022-12-11T07:26:10.569Z,-0.61
2022-12-11T07:28:37.114Z,-0.62
2022-12-11T07:31:11.913Z,-0.66
2022-12-11T07:33:38.432Z,-0.75
2022-12-11T07:36:06.855Z,-0.69
2022-12-11T07:38:33.679Z,-0.71
2022-12-11T07:41:05.305Z,-0.71
2022-12-11T07:43:32.698Z,-0.78
2022-12-11T07:46:11.763Z,-0.73
2022-12-11T07:48:39.439Z,-0.86
2022-12-11T07:51:33.077Z,-0.81
2022-12-11T07:54:07.615Z,-0.89
2022-12-11T07:56:34.634Z,-0.94
2022-12-11T07:59:02.873Z,-0.91
2022-12-11T08:01:30.549Z,-0.96
2022-12-11T08:03:57.327Z,-0.89
2022-12-11T08:06:32.930Z,-0.83
2022-12-11T08:09:00.438Z,-0.93
2022-12-11T08:11:27.315Z,-0.94
2022-12-11T08:13:54.224Z,-0.87
2022-12-11T08:16:20.760Z,-0.84
2022-12-11T08:18:48.051Z,-0.88
2022-12-11T08:21:20.098Z,-0.77
2022-12-11T08:23:46.551Z,-0.79
2022-12-11T08:26:16.197Z,-0.78
2022-12-11T08:28:42.730Z,-0.87
2022-12-11T08:31:09.923Z,-0.90
2022-12-11T08:33:37.385Z,-0.90
2022-12-11T08:36:05.573Z,-0.93
2022-12-11T08:38:31.948Z,-0.88
2022-12-11T08:40:58.309Z,-0.92
2022-12-11T08:43:25.050Z,-0.80
2022-12-11T08:45:51.509Z,-0.69
2022-12-11T08:48:17.919Z,-0.69
2022-12-11T08:50:44.316Z,-0.61
2022-12-11T08:53:10.687Z,-0.65
2022-12-11T08:55:37.135Z,-0.66
2022-12-11T08:58:03.994Z,-0.62
2022-12-11T09:00:30.387Z,-0.56
2022-12-11T09:02:56.823Z,-0.52
2022-12-11T09:05:23.237Z,-0.51
2022-12-11T09:07:49.651Z,-0.62
2022-12-11T09:10:16.160Z,-0.56
2022-12-11T09:12:42.779Z,-0.52
2022-12-11T09:15:09.686Z,-0.51
2022-12-11T09:17:36.437Z,-0.55
2022-12-11T09:20:04.919Z,-0.46
2022-12-11T09:22:33.439Z,-0.45
2022-12-11T09:24:59.827Z,-0.43
2022-12-11T09:27:26.219Z,-0.39
2022-12-11T09:29:52.590Z,-0.35
2022-12-11T09:32:19.018Z,-0.48
2022-12-11T09:34:45.515Z,-0.39
2022-12-11T09:37:12.024Z,-0.43
2022-12-11T09:39:38.529Z,-0.34
2022-12-11T09:42:14.391Z,-0.34
2022-12-11T09:44:54.770Z,-0.40
2022-12-11T09:47:30.240Z,-0.34
2022-12-11T09:50:04.900Z,-0.30
2022-12-11T09:52:48.702Z,-0.33
2022-12-11T09:55:18.504Z,-0.37
2022-12-11T09:57:49.464Z,-0.43
2022-12-11T10:00:23.594Z,-0.30
2022-12-11T10:03:11.853Z,-0.30
2022-12-11T10:05:47.634Z,-0.30
2022-12-11T10:08:19.472Z,-0.31
2022-12-11T10:11:04.851Z,-0.32
2022-12-11T10:13:49.460Z,-0.44
2022-12-11T10:16:34.795Z,-0.38
2022-12-11T10:19:01.395Z,-0.37
2022-12-11T10:21:31.831Z,-0.33
2022-12-11T10:24:00.376Z,-0.38
2022-12-11T10:26:29.210Z,-0.34
2022-12-11T10:29:06.688Z,-0.28
2022-12-11T10:31:39.791Z,-0.29
2022-12-11T10:34:15.115Z,-0.27
2022-12-11T10:36:42.415Z,-0.29
2022-12-11T10:39:19.759Z,-0.23
2022-12-11T10:41:47.975Z,-0.17
2022-12-11T10:44:23.213Z,-0.08
2022-12-11T10:47:14.546Z,-0.14
2022-12-11T10:49:53.143Z,-0.05
2022-12-11T10:52:35.938Z,-0.01
2022-12-11T10:55:08.728Z,0.00
2022-12-11T10:57:36.413Z,0.00
2022-12-11T11:00:33.481Z,0.07
2022-12-11T11:03:01.061Z,-0.07
2022-12-11T11:05:30.700Z,0.02
2022-12-11T11:08:23.798Z,0.02
2022-12-11T11:10:58.336Z,0.02
2022-12-11T11:13:27.093Z,0.09
2022-12-11T11:16:01.595Z,0.09
2022-12-11T11:18:29.759Z,0.03
2022-12-11T11:20:56.499Z,0.08
2022-12-11T11:23:23.946Z,0.15
2022-12-11T11:25:59.097Z,0.10
2022-12-11T11:28:28.431Z,0.15
2022-12-11T11:31:04.920Z,0.20
2022-12-11T11:33:33.224Z,0.18
2022-12-11T11:36:05.967Z,0.23
2022-12-11T11:38:38.718Z,0.13
2022-12-11T11:41:23.958Z,0.25
2022-12-11T11:43:56.734Z,0.21
2022-12-11T11:46:29.077Z,0.17
2022-12-11T11:49:13.876Z,0.20
2022-12-11T11:51:47.628Z,0.26
2022-12-11T11:54:51.613Z,0.21
2022-12-11T11:57:24.899Z,0.17
2022-12-11T11:59:56.060Z,0.25
2022-12-11T12:02:22.582Z,0.18
2022-12-11T12:04:53.153Z,0.24
2022-12-11T12:07:50.505Z,0.35
2022-12-11T12:10:26.754Z,0.41
2022-12-11T12:13:23.899Z,0.38
2022-12-11T12:15:56.774Z,0.46
2022-12-11T12:18:26.231Z,0.52
2022-12-11T12:21:00.109Z,0.42
2022-12-11T12:23:39.214Z,0.56
2022-12-11T12:26:13.734Z,0.52
2022-12-11T12:28:58.882Z,0.65
2022-12-11T12:31:44.283Z,0.66
2022-12-11T12:34:48.234Z,0.61
2022-12-11T12:37:30.165Z,0.60
2022-12-11T12:40:16.750Z,0.51
2022-12-11T12:42:52.363Z,0.43
2022-12-11T12:45:25.354Z,0.51
2022-12-11T12:47:53.641Z,0.52
2022-12-11T12:50:23.069Z,0.58
2022-12-11T12:52:51.217Z,0.58
2022-12-11T12:55:22.938Z,0.58
2022-12-11T12:57:55.090Z,0.46
2022-12-11T13:00:32.509Z,0.35
2022-12-11T13:03:02.093Z,0.29
2022-12-11T13:05:32.794Z,0.24
2022-12-11T13:08:01.683Z,0.42
2022-12-11T13:10:30.526Z,0.54
2022-12-11T13:12:57.341Z,0.51
2022-12-11T13:15:44.925Z,0.52
2022-12-11T13:18:39.079Z,0.53
2022-12-11T13:21:27.438Z,0.28
2022-12-11T13:23:53.954Z,0.31
2022-12-11T13:26:31.528Z,0.38
2022-12-11T13:28:58.249Z,0.37
2022-12-11T13:31:43.993Z,0.50
2022-12-11T13:34:18.809Z,0.46
2022-12-11T13:36:50.151Z,0.50
2022-12-11T13:39:23.707Z,0.54
2022-12-11T13:42:24.021Z,0.47
2022-12-11T13:44:51.326Z,0.50
2022-12-11T13:47:18.798Z,0.60
2022-12-11T13:49:49.058Z,0.52
2022-12-11T13:52:21.233Z,0.50
2022-12-11T13:54:49.637Z,0.55
2022-12-11T13:57:21.933Z,0.47
2022-12-11T13:59:52.966Z,0.42
2022-12-11T14:02:19.390Z,0.45
2022-12-11T14:04:48.048Z,0.41
2022-12-11T14:07:17.502Z,0.39
2022-12-11T14:09:45.717Z,0.30
2022-12-11T14:12:17.496Z,0.41
2022-12-11T14:14:49.747Z,0.42
2022-12-11T14:17:24.127Z,0.50
2022-12-11T14:19:50.782Z,0.36
2022-12-11T14:22:22.848Z,0.45
2022-12-11T14:24:54.624Z,0.49
2022-12-11T14:27:21.736Z,0.39
2022-12-11T14:29:49.120Z,0.52
2022-12-11T14:32:38.474Z,0.56
2022-12-11T14:35:06.894Z,0.59
2022-12-11T14:37:34.582Z,0.59
2022-12-11T14:40:04.279Z,0.56
2022-12-11T14:42:34.248Z,0.49
2022-12-11T14:45:22.670Z,0.49
2022-12-11T14:47:50.684Z,0.38
2022-12-11T14:50:26.871Z,0.40
2022-12-11T14:52:56.572Z,0.46
2022-12-11T14:55:30.888Z,0.47
2022-12-11T14:58:00.730Z,0.55
2022-12-11T15:00:33.067Z,0.54
2022-12-11T15:03:01.722Z,0.48
2022-12-11T15:05:28.649Z,0.42
2022-12-11T15:07:57.170Z,0.47
2022-12-11T15:10:31.272Z,0.49
2022-12-11T15:12:57.931Z,0.47
2022-12-11T15:15:24.755Z,0.36
2022-12-11T15:17:52.962Z,0.42
2022-12-11T15:20:32.354Z,0.42
2022-12-11T15:23:01.519Z,0.49
2022-12-11T15:25:29.284Z,0.52
2022-12-11T15:28:00.251Z,0.43
2022-12-11T15:30:27.083Z,0.53
2022-12-11T15:33:09.922Z,0.58
2022-12-11T15:35:37.448Z,0.52
2022-12-11T15:38:03.827Z,0.57
2022-12-11T15:40:30.536Z,0.59
2022-12-11T15:42:57.361Z,0.64
2022-12-11T15:45:25.902Z,0.52
2022-12-11T15:47:52.649Z,0.43
2022-12-11T15:50:21.869Z,0.50
2022-12-11T15:52:48.889Z,0.50
2022-12-11T15:55:16.001Z,0.58
2022-12-11T15:57:48.027Z,0.52
2022-12-11T16:00:16.258Z,0.61
2022-12-11T16:02:43.145Z,0.60
2022-12-11T16:05:09.996Z,0.54
2022-12-11T16:07:38.118Z,0.59
2022-12-11T16:10:05.539Z,0.55
2022-12-11T16:12:32.396Z,0.52
2022-12-11T16:14:58.969Z,0.50
2022-12-11T16:17:25.364Z,0.47
2022-12-11T16:19:53.224Z,0.52
2022-12-11T16:22:19.904Z,0.57
2022-12-11T16:24:46.330Z,0.52
2022-12-11T16:27:12.775Z,0.50
2022-12-11T16:29:41.519Z,0.54
2022-12-11T16:32:08.568Z,0.52
2022-12-11T16:34:36.350Z,0.52
2022-12-11T16:37:03.118Z,0.44
2022-12-11T16:39:30.679Z,0.48
2022-12-11T16:41:57.090Z,0.56
2022-12-11T16:44:25.302Z,0.60
2022-12-11T16:46:52.354Z,0.62
2022-12-11T16:49:18.980Z,0.67
2022-12-11T16:51:45.520Z,0.64
2022-12-11T16:54:12.094Z,0.62
2022-12-11T16:56:38.919Z,0.61
2022-12-11T16:59:05.570Z,0.65
2022-12-11T17:01:32.232Z,0.70
2022-12-11T17:03:59.267Z,0.70
2022-12-11T17:06:25.934Z,0.70
2022-12-11T17:08:52.596Z,0.69
2022-12-11T17:11:22.094Z,0.80
2022-12-11T17:13:53.136Z,0.76
2022-12-11T17:16:19.609Z,0.81
2022-12-11T17:18:46.148Z,0.77
2022-12-11T17:21:15.826Z,0.63
2022-12-11T17:23:42.437Z,0.72
2022-12-11T17:26:09.049Z,0.62
2022-12-11T17:28:36.220Z,0.71
2022-12-11T17:31:11.379Z,0.68
2022-12-11T17:33:37.992Z,0.78
2022-12-11T17:36:06.129Z,0.77
2022-12-11T17:38:33.005Z,0.83
2022-12-11T17:40:59.456Z,0.81
2022-12-11T17:43:26.370Z,0.81
2022-12-11T17:45:52.842Z,0.73
2022-12-11T17:48:22.312Z,0.71
2022-12-11T17:50:50.753Z,0.76
2022-12-11T17:53:18.286Z,0.79
2022-12-11T17:55:45.622Z,0.80
2022-12-11T17:58:13.542Z,0.68
2022-12-11T18:00:41.218Z,0.68
2022-12-11T18:03:07.992Z,0.66
2022-12-11T18:05:35.017Z,0.71
2022-12-11T18:08:01.536Z,0.62
2022-12-11T18:10:28.034Z,0.59
2022-12-11T18:12:54.520Z,0.54
2022-12-11T18:15:20.908Z,0.60
2022-12-11T18:17:47.376Z,0.67
2022-12-11T18:20:15.792Z,0.62
2022-12-11T18:22:42.548Z,0.59
2022-12-11T18:25:11.839Z,0.67
2022-12-11T18:27:38.858Z,0.59
2022-12-11T18:30:05.758Z,0.64
2022-12-11T18:32:32.275Z,0.55
2022-12-11T18:34:58.669Z,0.68
2022-12-11T18:37:28.165Z,0.59
2022-12-11T18:39:54.827Z,0.63
2022-12-11T18:42:36.425Z,0.63
2022-12-11T18:45:03.125Z,0.58
2022-12-11T18:47:29.513Z,0.53
2022-12-11T18:49:55.979Z,0.57
2022-12-11T18:52:22.465Z,0.62
2022-12-11T18:54:50.307Z,0.65
2022-12-11T18:57:16.737Z,0.62
2022-12-11T18:59:43.188Z,0.64
2022-12-11T19:02:11.123Z,0.52
2022-12-11T19:04:37.666Z,0.54
2022-12-11T19:07:04.123Z,0.56
2022-12-11T19:09:38.042Z,0.47
2022-12-11T19:12:05.703Z,0.59
2022-12-11T19:14:32.089Z,0.47
2022-12-11T19:16:58.453Z,0.47
2022-12-11T19:19:24.931Z,0.43
2022-12-11T19:21:51.424Z,0.44
2022-12-11T19:24:22.301Z,0.38
2022-12-11T19:26:49.099Z,0.48
2022-12-11T19:29:25.547Z,0.43
2022-12-11T19:31:52.100Z,0.41
2022-12-11T19:34:18.596Z,0.41
2022-12-11T19:36:45.082Z,0.42
2022-12-11T19:39:13.408Z,0.30
2022-12-11T19:41:40.479Z,0.42
2022-12-11T19:44:07.510Z,0.42
2022-12-11T19:46:34.856Z,0.36
2022-12-11T19:49:01.391Z,0.36
2022-12-11T19:51:39.207Z,0.30
2022-12-11T19:54:12.865Z,0.31
2022-12-11T19:56:39.262Z,0.26
2022-12-11T19:59:08.291Z,0.38
2022-12-11T20:01:36.124Z,0.39
2022-12-11T20:04:05.943Z,0.35
2022-12-11T20:06:33.741Z,0.32
2022-12-11T20:09:01.167Z,0.31
2022-12-11T20:11:27.705Z,0.20
2022-12-11T20:13:55.563Z,0.26
2022-12-11T20:16:39.520Z,0.23
2022-12-11T20:19:08.877Z,0.25
2022-12-11T20:21:35.331Z,0.24
2022-12-11T20:24:01.746Z,0.17
2022-12-11T20:26:29.807Z,0.25
2022-12-11T20:28:56.458Z,0.14
2022-12-11T20:31:24.808Z,0.15
2022-12-11T20:33:53.266Z,0.21
2022-12-11T20:36:21.477Z,0.16
2022-12-11T20:38:48.092Z,0.14
2022-12-11T20:41:16.942Z,0.18
2022-12-11T20:43:43.868Z,0.15
2022-12-11T20:46:13.024Z,0.17
2022-12-11T20:48:40.905Z,0.18
2022-12-11T20:51:09.612Z,0.21
2022-12-11T20:53:36.895Z,0.15
2022-12-11T20:56:12.399Z,0.11
2022-12-11T20:58:39.615Z,0.12
2022-12-11T21:01:06.204Z,0.14
2022-12-11T21:03:40.434Z,0.20
2022-12-11T21:06:09.502Z,0.13
2022-12-11T21:08:35.939Z,0.14
2022-12-11T21:11:05.981Z,0.09
2022-12-11T21:13:32.472Z,-0.08
2022-12-11T21:16:04.308Z,-0.08
2022-12-11T21:18:30.742Z,-0.08
2022-12-11T21:20:57.378Z,-0.10
2022-12-11T21:23:23.762Z,-0.07
2022-12-11T21:25:54.157Z,-0.08
2022-12-11T21:28:20.837Z,0.00
2022-12-11T21:30:47.408Z,-0.09
2022-12-11T21:33:13.872Z,-0.04
2022-12-11T21:35:40.268Z,-0.05
2022-12-11T21:38:06.699Z,0.00
2022-12-11T21:40:33.121Z,-0.09
2022-12-11T21:42:59.499Z,-0.03
2022-12-11T21:45:59.113Z,0.07
2022-12-11T21:48:14.211Z,-0.02
2022-12-11T21:50:41.788Z,0.00
2022-12-11T21:53:08.247Z,-0.04
2022-12-11T21:55:34.728Z,-0.02
2022-12-11T21:58:01.205Z,-0.16
2022-12-11T22:00:28.224Z,-0.16
2022-12-11T22:02:54.714Z,-0.12
2022-12-11T22:05:21.219Z,-0.12
2022-12-11T22:07:47.720Z,-0.14
2022-12-11T22:10:14.203Z,-0.09
2022-12-11T22:12:40.654Z,-0.13
2022-12-11T22:15:07.946Z,-0.15
2022-12-11T22:17:34.415Z,-0.22
2022-12-11T22:20:00.850Z,-0.21
2022-12-11T22:22:27.369Z,-0.12
2022-12-11T22:24:53.744Z,-0.20
2022-12-11T22:27:23.605Z,-0.03
2022-12-11T22:29:50.506Z,-0.01
2022-12-11T22:32:16.965Z,-0.05
2022-12-11T22:34:43.379Z,0.01
2022-12-11T22:37:09.795Z,-0.03
2022-12-11T22:39:36.219Z,-0.01
2022-12-11T22:42:03.681Z,-0.02
2022-12-11T22:44:30.087Z,0.03
2022-12-11T22:46:57.343Z,0.00
2022-12-11T22:49:24.081Z,-0.03
2022-12-11T22:51:50.512Z,0.13
2022-12-11T22:54:16.931Z,0.17
2022-12-11T22:56:43.476Z,0.14
2022-12-11T22:59:09.894Z,0.20
2022-12-11T23:01:36.374Z,0.24
2022-12-11T23:04:02.796Z,0.30
2022-12-11T23:06:29.211Z,0.27
2022-12-11T23:09:00.080Z,0.35
2022-12-11T23:11:29.732Z,0.26
2022-12-11T23:13:56.625Z,0.22
2022-12-11T23:16:24.402Z,0.20
2022-12-11T23:18:50.906Z,0.27
2022-12-11T23:21:17.506Z,0.23
2022-12-11T23:23:43.907Z,0.27
2022-12-11T23:26:15.575Z,0.28
2022-12-11T23:28:42.075Z,0.28
2022-12-11T23:31:08.843Z,0.30
2022-12-11T23:33:35.372Z,0.29
2022-12-11T23:36:02.104Z,0.26
2022-12-11T23:38:28.588Z,0.37
2022-12-11T23:40:55.115Z,0.34
2022-12-11T23:43:21.954Z,0.33
2022-12-11T23:45:48.487Z,0.36
2022-12-11T23:48:15.001Z,0.34
2022-12-11T23:50:42.454Z,0.29
2022-12-11T23:53:09.112Z,0.34
2022-12-11T23:55:36.286Z,0.37
2022-12-11T23:58:02.667Z,0.36
